Time;durP1;ratioP1;P1;durP2;ratioP2;P2;SDS_P1;SDS_P2;PMS_P1;PMS_P2;Temp;Humidity;BMP_temperature;BMP_pressure;BME280_temperature;BME280_humidity;BME280_pressure;Samples;Min_cycle;Max_cycle;Signal;HPM_P1;HPM_P2
2022/12/06 00:01:24;;;;;;;23.30;13.85;;;3.50;88.40;;;;;;5009868;28;20034;-60
2022/12/06 00:03:53;;;;;;;36.42;14.75;;;3.50;88.80;;;;;;5010484;28;20049;-60
2022/12/06 00:06:20;;;;;;;37.85;15.25;;;3.60;89.00;;;;;;5007798;28;20437;-59
2022/12/06 00:08:47;;;;;;;29.02;15.38;;;3.60;89.00;;;;;;5008600;28;20041;-58
2022/12/06 00:11:36;;;;;;;22.52;14.05;;;3.60;89.10;;;;;;5012286;28;20036;-59
2022/12/06 00:14:04;;;;;;;25.35;14.30;;;3.60;89.30;;;;;;5016015;28;20499;-59
2022/12/06 00:16:30;;;;;;;27.73;15.30;;;3.70;89.30;;;;;;5016901;28;20337;-61
2022/12/06 00:18:57;;;;;;;25.42;14.52;;;3.70;89.30;;;;;;5008927;28;20054;-59
2022/12/06 00:21:27;;;;;;;25.08;14.38;;;3.70;89.30;;;;;;5007235;28;20034;-62
2022/12/06 00:23:58;;;;;;;25.38;14.20;;;3.80;89.40;;;;;;5007489;28;20038;-60
2022/12/06 00:26:24;;;;;;;22.85;13.77;;;3.80;89.20;;;;;;5007655;28;20049;-60
2022/12/06 00:28:55;;;;;;;24.65;14.65;;;3.90;89.20;;;;;;5006641;28;20479;-61
2022/12/06 00:31:22;;;;;;;26.05;15.00;;;3.90;89.20;;;;;;5010378;28;20993;-60
2022/12/06 00:33:48;;;;;;;22.85;14.27;;;3.90;89.10;;;;;;5006248;28;20144;-59
2022/12/06 00:36:29;;;;;;;26.63;15.18;;;3.90;89.00;;;;;;5007160;28;20045;-60
2022/12/06 00:38:58;;;;;;;22.98;14.27;;;4.00;88.90;;;;;;5009945;28;20045;-59
2022/12/06 00:41:24;;;;;;;24.73;14.85;;;4.00;88.70;;;;;;4989923;28;20045;-60
2022/12/06 00:43:51;;;;;;;22.95;14.10;;;4.00;88.60;;;;;;5002515;28;21459;-60
2022/12/06 00:46:28;;;;;;;23.60;14.27;;;4.00;88.50;;;;;;5006651;28;20042;-60
2022/12/06 00:48:55;;;;;;;23.35;13.82;;;4.00;88.40;;;;;;5011222;28;20042;-59
2022/12/06 00:51:22;;;;;;;20.45;13.10;;;4.00;88.40;;;;;;5012936;28;20540;-60
2022/12/06 00:53:49;;;;;;;22.67;13.63;;;4.00;88.30;;;;;;5011264;28;20343;-61
2022/12/06 00:56:15;;;;;;;22.95;14.38;;;4.00;88.40;;;;;;5005678;28;20429;-59
2022/12/06 00:58:41;;;;;;;22.42;14.18;;;4.00;88.30;;;;;;5011973;28;20091;-61
2022/12/06 01:01:21;;;;;;;25.67;14.82;;;4.00;88.30;;;;;;5011389;28;20068;-57
2022/12/06 01:03:50;;;;;;;23.75;14.88;;;4.00;87.90;;;;;;5010575;28;20565;-59
2022/12/06 01:06:17;;;;;;;25.45;15.75;;;4.00;88.20;;;;;;5006701;28;20038;-60
2022/12/06 01:08:43;;;;;;;22.13;14.10;;;4.10;88.20;;;;;;5008258;28;20038;-61
2022/12/06 01:11:10;;;;;;;23.25;14.05;;;4.10;88.20;;;;;;5007988;28;20049;-61
2022/12/06 01:13:36;;;;;;;23.42;14.60;;;4.10;88.20;;;;;;5016327;28;20453;-59
2022/12/06 01:16:10;;;;;;;23.40;14.77;;;4.10;88.30;;;;;;5016406;28;20029;-60
2022/12/06 01:18:36;;;;;;;22.63;13.95;;;4.10;88.50;;;;;;5010689;28;20038;-61
2022/12/06 01:21:08;;;;;;;20.35;13.95;;;4.00;88.50;;;;;;5006422;28;20041;-60
2022/12/06 01:23:33;;;;;;;21.13;13.43;;;4.10;88.70;;;;;;5007277;28;20041;-62
2022/12/06 01:25:59;;;;;;;23.35;14.35;;;4.10;88.60;;;;;;5005636;28;20453;-61
2022/12/06 01:28:25;;;;;;;22.38;14.57;;;4.10;88.60;;;;;;5007244;28;20041;-59
2022/12/06 01:30:51;;;;;;;22.77;14.52;;;4.10;88.60;;;;;;5005466;28;20029;-59
2022/12/06 01:33:17;;;;;;;23.67;15.02;;;4.10;88.70;;;;;;5008211;28;20342;-61
2022/12/06 01:35:43;;;;;;;26.67;15.13;;;4.20;88.80;;;;;;5006236;28;20505;-61
2022/12/06 01:38:09;;;;;;;21.92;13.90;;;4.20;88.90;;;;;;5009364;28;20401;-60
2022/12/06 01:40:46;;;;;;;25.63;15.15;;;4.20;88.90;;;;;;5008925;28;20113;-61
2022/12/06 01:43:39;;;;;;;23.00;14.95;;;4.20;88.90;;;;;;5008023;28;20120;-59
2022/12/06 01:46:27;;;;;;;23.30;13.85;;;4.30;88.90;;;;;;5008006;28;20034;-59
2022/12/06 01:49:04;;;;;;;20.75;13.13;;;4.30;88.90;;;;;;5009992;28;20583;-60
2022/12/06 01:51:30;;;;;;;24.00;15.00;;;4.30;89.00;;;;;;5008819;28;20034;-57
2022/12/06 01:53:58;;;;;;;28.13;15.98;;;4.30;88.70;;;;;;5011017;28;20052;-60
2022/12/06 01:56:24;;;;;;;25.67;15.77;;;4.40;88.80;;;;;;5012866;28;20038;-60
2022/12/06 01:58:53;;;;;;;25.25;14.75;;;4.40;88.80;;;;;;5012845;28;20041;-61
2022/12/06 02:01:19;;;;;;;27.17;15.30;;;4.40;89.60;;;;;;5008878;28;21422;-60
2022/12/06 02:03:47;;;;;;;24.88;15.07;;;4.40;88.70;;;;;;5013675;28;20030;-61
2022/12/06 02:06:15;;;;;;;24.83;15.40;;;4.40;88.70;;;;;;5014129;28;20056;-62
2022/12/06 02:08:41;;;;;;;26.85;15.73;;;4.40;89.60;;;;;;5009173;28;20042;-61
2022/12/06 02:11:07;;;;;;;29.95;15.85;;;4.40;88.60;;;;;;5008129;28;20048;-60
2022/12/06 02:13:34;;;;;;;26.58;15.35;;;4.50;88.70;;;;;;5010764;28;20026;-61
2022/12/06 02:16:20;;;;;;;25.05;15.07;;;4.50;88.60;;;;;;5010267;28;20124;-59
2022/12/06 02:18:51;;;;;;;28.30;16.45;;;4.50;88.70;;;;;;5010659;28;20463;-60
2022/12/06 02:21:42;;;;;;;26.25;15.50;;;4.50;88.70;;;;;;5012969;28;20542;-60
2022/12/06 02:24:13;;;;;;;26.95;15.60;;;4.50;88.70;;;;;;5009198;28;20044;-61
2022/12/06 02:26:58;;;;;;;24.33;15.30;;;4.50;88.60;;;;;;5007748;28;20533;-61
2022/12/06 02:29:41;;;;;;;24.55;14.15;;;4.50;88.60;;;;;;5011924;28;20030;-62
2022/12/06 02:32:25;;;;;;;25.25;15.18;;;4.50;88.60;;;;;;5011417;28;20493;-61
2022/12/06 02:34:58;;;;;;;24.40;14.90;;;4.50;88.50;;;;;;5010343;28;20119;-62
2022/12/06 02:37:45;;;;;;;22.52;15.13;;;4.50;88.20;;;;;;5011295;28;20498;-61
2022/12/06 02:40:15;;;;;;;25.88;14.85;;;4.50;88.20;;;;;;5011283;28;20417;-60
2022/12/06 02:42:52;;;;;;;24.60;14.45;;;4.50;88.10;;;;;;5011806;28;20080;-61
2022/12/06 02:45:21;;;;;;;26.23;15.98;;;4.50;87.90;;;;;;5011174;28;20045;-61
2022/12/06 02:47:48;;;;;;;28.58;16.73;;;4.50;87.70;;;;;;5011676;28;20142;-62
2022/12/06 02:50:27;;;;;;;29.52;17.40;;;4.50;87.20;;;;;;5012103;28;20053;-60
2022/12/06 02:52:55;;;;;;;29.02;17.00;;;4.40;86.70;;;;;;5012841;28;20098;-60
2022/12/06 02:55:22;;;;;;;25.98;15.07;;;4.40;86.80;;;;;;5011720;28;20037;-59
2022/12/06 02:57:53;;;;;;;25.83;15.40;;;4.40;86.90;;;;;;5010972;28;20033;-60
2022/12/06 03:00:37;;;;;;;26.08;15.25;;;4.30;86.50;;;;;;5008800;28;20552;-62
2022/12/06 03:03:35;;;;;;;22.83;14.18;;;4.30;86.00;;;;;;5009420;28;20401;-60
2022/12/06 03:06:00;;;;;;;24.02;14.43;;;4.20;85.60;;;;;;4968697;28;20186;-61
2022/12/06 03:08:55;;;;;;;22.75;14.00;;;4.20;86.00;;;;;;5013822;28;20144;-61
2022/12/06 03:11:22;;;;;;;24.67;14.52;;;4.10;85.80;;;;;;4975567;28;20172;-61
2022/12/06 03:13:56;;;;;;;25.92;15.15;;;4.00;85.80;;;;;;5017351;28;20056;-59
2022/12/06 03:16:52;;;;;;;25.02;14.13;;;4.00;85.60;;;;;;5017185;28;20073;-60
2022/12/06 03:19:24;;;;;;;24.00;14.70;;;3.90;85.40;;;;;;4966441;28;20461;-61
2022/12/06 03:22:15;;;;;;;22.67;13.73;;;3.80;85.40;;;;;;5017842;28;20026;-56
2022/12/06 03:24:42;;;;;;;25.75;15.10;;;3.70;85.60;;;;;;5016745;28;20501;-59
2022/12/06 03:27:15;;;;;;;26.77;15.60;;;3.60;85.80;;;;;;5017648;28;20517;-59
2022/12/06 03:29:47;;;;;;;23.10;14.32;;;3.60;86.10;;;;;;5017514;28;20088;-61
2022/12/06 03:32:15;;;;;;;26.25;15.07;;;3.50;86.50;;;;;;5017099;28;20497;-60
2022/12/06 03:34:46;;;;;;;24.98;14.93;;;3.50;86.80;;;;;;5016777;28;20468;-60
2022/12/06 03:37:15;;;;;;;25.15;14.75;;;3.40;87.00;;;;;;5017041;28;20057;-61
2022/12/06 03:40:09;;;;;;;25.55;15.20;;;3.40;87.00;;;;;;5014919;28;20125;-58
2022/12/06 03:42:36;;;;;;;23.25;14.13;;;3.40;87.00;;;;;;5008939;28;20045;-58
2022/12/06 03:45:02;;;;;;;23.35;14.02;;;3.40;87.10;;;;;;5014245;28;20033;-61
2022/12/06 03:47:51;;;;;;;25.20;15.02;;;3.40;87.20;;;;;;5013021;28;20041;-61
2022/12/06 03:50:28;;;;;;;25.23;13.88;;;3.40;87.20;;;;;;5014867;28;20038;-60
2022/12/06 03:52:54;;;;;;;23.08;14.52;;;3.40;87.30;;;;;;5012225;28;20128;-59
2022/12/06 03:55:19;;;;;;;25.17;15.57;;;3.40;87.30;;;;;;5011426;28;20144;-60
2022/12/06 03:57:45;;;;;;;25.50;14.65;;;3.40;87.40;;;;;;5010513;28;20084;-60
2022/12/06 04:00:11;;;;;;;51.97;16.95;;;3.40;87.50;;;;;;5007203;28;20044;-61
2022/12/06 04:02:37;;;;;;;27.17;15.13;;;3.40;87.50;;;;;;5007181;28;20033;-60
2022/12/06 04:05:02;;;;;;;31.52;15.23;;;3.40;87.70;;;;;;5011166;28;20088;-59
2022/12/06 04:07:28;;;;;;;36.67;15.90;;;3.40;87.90;;;;;;5008287;28;20037;-59
2022/12/06 04:10:01;;;;;;;81.40;18.63;;;3.40;88.00;;;;;;5011244;28;20433;-59
2022/12/06 04:15:14;;;;;;;146.55;18.77;;;3.50;88.20;;;;;;5012275;28;20052;-59
2022/12/06 04:20:26;;;;;;;122.05;16.95;;;3.50;88.00;;;;;;5007965;28;20068;-60
2022/12/06 04:23:05;;;;;;;60.08;16.65;;;3.50;88.10;;;;;;5006165;28;20037;-61
2022/12/06 04:25:35;;;;;;;44.90;15.10;;;3.40;88.00;;;;;;5011273;28;20072;-61
2022/12/06 04:38:59;;;;;;;101.78;14.82;;;3.40;88.50;;;;;;5008999;28;20035;-58
2022/12/06 04:44:09;;;;;;;49.67;14.82;;;3.30;88.50;;;;;;5010967;28;20036;-58
2022/12/06 04:46:35;;;;;;;104.90;14.63;;;3.30;88.60;;;;;;5009915;28;20456;-61
2022/12/06 04:49:00;;;;;;;84.47;14.20;;;3.30;88.80;;;;;;5011058;28;20329;-60
2022/12/06 04:51:26;;;;;;;190.57;15.98;;;3.30;88.80;;;;;;5007469;28;20433;-61
2022/12/06 04:53:51;;;;;;;155.82;14.77;;;3.40;88.90;;;;;;5006299;28;20061;-60
2022/12/06 04:56:17;;;;;;;187.20;16.00;;;3.30;88.70;;;;;;5008645;28;20037;-61
2022/12/06 04:58:44;;;;;;;113.78;14.48;;;3.30;88.70;;;;;;5006059;28;20200;-61
2022/12/06 05:01:09;;;;;;;68.97;15.82;;;3.30;88.60;;;;;;5006726;28;20052;-60
2022/12/06 05:03:37;;;;;;;47.63;15.32;;;3.30;88.70;;;;;;5008040;28;20484;-60
2022/12/06 05:06:03;;;;;;;150.82;15.75;;;3.30;88.80;;;;;;5011717;28;20028;-60
2022/12/06 05:08:29;;;;;;;66.18;13.25;;;3.30;88.80;;;;;;5014732;28;20041;-60
2022/12/06 05:10:55;;;;;;;73.78;14.38;;;3.30;88.70;;;;;;5013789;28;20112;-59
2022/12/06 05:13:20;;;;;;;148.70;14.93;;;3.30;88.70;;;;;;5015882;28;20037;-60
2022/12/06 05:15:57;;;;;;;91.03;13.25;;;3.30;88.80;;;;;;5015699;28;20033;-58
2022/12/06 05:18:24;;;;;;;78.10;16.33;;;3.30;88.80;;;;;;5014998;28;20167;-61
2022/12/06 05:20:50;;;;;;;75.97;14.23;;;3.30;88.70;;;;;;5013496;28;20474;-60
2022/12/06 05:23:16;;;;;;;80.38;12.80;;;3.30;88.70;;;;;;5014075;28;20030;-60
2022/12/06 05:25:41;;;;;;;121.35;14.50;;;3.30;88.80;;;;;;5014638;28;20033;-58
2022/12/06 05:28:10;;;;;;;109.93;12.80;;;3.30;88.70;;;;;;5013425;28;20092;-61
2022/12/06 05:30:36;;;;;;;102.85;13.57;;;3.30;88.60;;;;;;5018215;28;20041;-59
2022/12/06 05:33:01;;;;;;;55.40;11.80;;;3.30;88.60;;;;;;5016177;28;20033;-59
2022/12/06 05:35:27;;;;;;;79.57;13.88;;;3.30;88.70;;;;;;5018091;28;20053;-60
2022/12/06 05:37:55;;;;;;;58.83;12.85;;;3.20;88.70;;;;;;5017862;28;20038;-60
2022/12/06 05:40:21;;;;;;;40.10;13.73;;;3.30;88.90;;;;;;5017725;28;20052;-58
2022/12/06 05:42:49;;;;;;;73.32;14.80;;;3.30;88.90;;;;;;5017302;28;20489;-60
2022/12/06 05:45:15;;;;;;;43.08;13.45;;;3.30;88.90;;;;;;5016515;28;20037;-60
2022/12/06 05:47:40;;;;;;;21.77;11.88;;;3.30;88.90;;;;;;5017468;28;20100;-60
2022/12/06 05:50:07;;;;;;;69.03;13.52;;;3.30;88.80;;;;;;5017800;28;20493;-59
2022/12/06 05:52:33;;;;;;;82.05;13.55;;;3.40;88.80;;;;;;5016611;28;20045;-60
2022/12/06 05:54:58;;;;;;;64.88;12.95;;;3.40;88.70;;;;;;5017702;28;20041;-61
2022/12/06 05:57:24;;;;;;;122.40;13.65;;;3.30;88.60;;;;;;5016873;28;20129;-61
2022/12/06 05:59:50;;;;;;;27.23;11.27;;;3.40;88.60;;;;;;5017882;28;20049;-61
2022/12/06 06:02:15;;;;;;;48.10;12.32;;;3.40;88.40;;;;;;5015707;28;20069;-59
2022/12/06 06:04:41;;;;;;;78.57;14.38;;;3.40;88.50;;;;;;5015830;28;20042;-59
2022/12/06 06:07:06;;;;;;;70.72;12.90;;;3.40;88.60;;;;;;5016675;28;20079;-59
2022/12/06 06:09:32;;;;;;;77.85;13.32;;;3.40;88.40;;;;;;5020228;28;20041;-60
2022/12/06 06:11:57;;;;;;;41.13;13.38;;;3.40;88.30;;;;;;5020230;28;20045;-61
2022/12/06 06:14:23;;;;;;;77.18;13.07;;;3.30;88.10;;;;;;5019377;28;20049;-60
2022/12/06 06:16:49;;;;;;;35.72;12.07;;;3.30;88.00;;;;;;5019039;28;20124;-60
2022/12/06 06:19:14;;;;;;;33.50;11.75;;;3.30;88.00;;;;;;5019290;28;20040;-60
2022/12/06 06:21:40;;;;;;;53.13;13.30;;;3.30;88.00;;;;;;5019157;28;20034;-61
2022/12/06 06:24:06;;;;;;;31.23;12.23;;;3.20;88.20;;;;;;5014941;28;20396;-61
2022/12/06 06:26:31;;;;;;;34.35;13.35;;;3.20;88.20;;;;;;5016468;28;20100;-61
2022/12/06 06:28:57;;;;;;;25.42;12.73;;;3.20;88.30;;;;;;5000287;28;20041;-56
2022/12/06 06:31:22;;;;;;;29.08;13.13;;;3.20;88.40;;;;;;5016390;28;20065;-62
2022/12/06 06:33:48;;;;;;;22.73;12.70;;;3.10;88.40;;;;;;5016680;28;20046;-61
2022/12/06 06:36:14;;;;;;;30.33;13.25;;;3.20;89.50;;;;;;5014087;28;20070;-60
2022/12/06 06:38:39;;;;;;;21.10;12.80;;;3.10;88.70;;;;;;5015433;28;20482;-61
2022/12/06 06:41:06;;;;;;;24.63;13.38;;;3.10;88.70;;;;;;5015912;28;20034;-58
2022/12/06 06:43:32;;;;;;;24.77;13.48;;;3.20;88.90;;;;;;5017007;28;20520;-58
2022/12/06 06:46:07;;;;;;;24.02;13.45;;;3.20;88.90;;;;;;5018209;28;20109;-58
2022/12/06 06:48:35;;;;;;;23.90;14.40;;;3.20;88.90;;;;;;5018461;28;20030;-61
2022/12/06 06:51:07;;;;;;;24.05;13.90;;;3.20;88.90;;;;;;5018200;28;20570;-59
2022/12/06 06:53:32;;;;;;;23.92;13.52;;;3.20;88.90;;;;;;5018209;28;20037;-60
2022/12/06 06:55:58;;;;;;;23.15;13.23;;;3.20;88.90;;;;;;5018013;28;20084;-60
2022/12/06 06:58:24;;;;;;;21.73;12.65;;;3.20;88.70;;;;;;5018545;28;20057;-59
2022/12/06 07:00:58;;;;;;;21.83;13.88;;;3.30;88.70;;;;;;5017771;28;20061;-58
2022/12/06 07:03:25;;;;;;;20.42;12.90;;;3.20;88.60;;;;;;5018012;28;20049;-59
2022/12/06 07:06:03;;;;;;;22.58;13.80;;;3.20;88.70;;;;;;5000614;28;20049;-59
2022/12/06 07:08:30;;;;;;;24.45;14.90;;;3.20;89.70;;;;;;5018600;28;20029;-59
2022/12/06 07:10:56;;;;;;;20.08;13.18;;;3.30;88.90;;;;;;5018236;28;20444;-60
2022/12/06 07:13:23;;;;;;;21.75;13.45;;;3.20;88.70;;;;;;5017929;28;20574;-60
2022/12/06 07:15:49;;;;;;;22.08;14.05;;;3.30;88.80;;;;;;5017691;28;20079;-59
2022/12/06 07:18:18;;;;;;;22.90;14.75;;;3.30;88.90;;;;;;5018291;28;20040;-61
2022/12/06 07:20:45;;;;;;;22.50;12.95;;;3.30;88.90;;;;;;5018066;28;20041;-59
2022/12/06 07:23:14;;;;;;;24.73;14.60;;;3.30;88.90;;;;;;5018024;28;20145;-60
2022/12/06 07:25:40;;;;;;;23.45;14.35;;;3.30;88.90;;;;;;5018652;28;20037;-59
2022/12/06 07:28:06;;;;;;;23.02;14.80;;;3.40;89.00;;;;;;5018298;28;20401;-59
2022/12/06 07:30:32;;;;;;;23.67;14.40;;;3.40;89.10;;;;;;5017388;28;20365;-57
2022/12/06 07:32:57;;;;;;;25.77;15.10;;;3.40;89.00;;;;;;5017363;28;20443;-59
2022/12/06 07:35:24;;;;;;;26.13;15.23;;;3.40;89.00;;;;;;5017588;28;20045;-60
2022/12/06 07:37:49;;;;;;;22.58;14.93;;;3.50;89.10;;;;;;5017392;28;20087;-61
2022/12/06 07:40:16;;;;;;;21.95;14.40;;;3.50;89.10;;;;;;5017311;28;20066;-58
2022/12/06 07:45:26;;;;;;;21.80;14.57;;;3.60;88.90;;;;;;5015075;28;20183;-61
2022/12/06 07:47:51;;;;;;;26.20;15.02;;;3.60;88.70;;;;;;5014799;28;20168;-60
2022/12/06 07:50:20;;;;;;;22.52;14.60;;;3.60;88.70;;;;;;5015858;28;20042;-59
2022/12/06 07:52:48;;;;;;;22.40;14.18;;;3.60;88.80;;;;;;5013816;28;20094;-59
2022/12/06 07:55:14;;;;;;;23.30;14.73;;;3.70;88.90;;;;;;5013428;28;20041;-59
2022/12/06 07:57:40;;;;;;;23.95;14.93;;;3.70;88.80;;;;;;5014407;28;20068;-59
2022/12/06 08:00:08;;;;;;;22.95;14.15;;;3.70;88.80;;;;;;5013324;28;20038;-60
2022/12/06 08:02:34;;;;;;;21.95;14.25;;;3.70;88.80;;;;;;5013871;28;20042;-60
2022/12/06 08:05:00;;;;;;;22.30;14.13;;;3.80;88.90;;;;;;5014445;28;20050;-60
2022/12/06 08:07:26;;;;;;;25.02;14.18;;;3.80;88.80;;;;;;5015316;28;20092;-60
2022/12/06 08:09:52;;;;;;;23.40;15.02;;;3.80;88.80;;;;;;5014992;28;20096;-59
2022/12/06 08:12:20;;;;;;;20.73;13.85;;;3.80;88.70;;;;;;5010939;28;20034;-60
2022/12/06 08:14:45;;;;;;;23.42;14.45;;;3.80;88.60;;;;;;5013004;28;20188;-59
2022/12/06 08:17:11;;;;;;;21.08;13.82;;;3.80;89.20;;;;;;5015923;28;20218;-59
2022/12/06 08:19:37;;;;;;;23.02;14.77;;;3.80;88.20;;;;;;5013760;28;20057;-61
2022/12/06 08:22:02;;;;;;;23.00;14.65;;;3.80;88.20;;;;;;5013002;28;20065;-60
2022/12/06 08:24:28;;;;;;;21.55;14.52;;;3.80;88.20;;;;;;5012647;28;20041;-60
2022/12/06 08:26:54;;;;;;;23.10;14.77;;;3.70;88.30;;;;;;5014670;28;20045;-61
2022/12/06 08:29:20;;;;;;;25.10;15.27;;;3.70;88.60;;;;;;5014976;28;20034;-60
2022/12/06 08:31:46;;;;;;;21.77;14.75;;;3.70;88.80;;;;;;5015333;28;20029;-59
2022/12/06 08:34:12;;;;;;;25.10;15.00;;;3.70;88.70;;;;;;5013251;28;20299;-61
2022/12/06 08:36:39;;;;;;;26.73;16.00;;;3.70;88.70;;;;;;5012551;28;20346;-57
2022/12/06 08:39:06;;;;;;;25.48;16.27;;;3.80;88.90;;;;;;5015120;28;20036;-60
2022/12/06 08:44:17;;;;;;;21.65;14.05;;;3.70;88.70;;;;;;5013384;28;20576;-60
2022/12/06 08:46:43;;;;;;;22.25;14.02;;;3.70;88.90;;;;;;5013671;28;20029;-60
2022/12/06 08:49:10;;;;;;;18.95;12.45;;;3.80;88.90;;;;;;5014105;28;20516;-59
2022/12/06 08:51:35;;;;;;;18.70;12.57;;;3.80;88.70;;;;;;5011777;28;20471;-59
2022/12/06 08:54:02;;;;;;;18.10;12.60;;;3.80;88.60;;;;;;5013258;28;20042;-60
2022/12/06 08:56:28;;;;;;;17.13;11.93;;;3.80;88.70;;;;;;5013781;28;20038;-60
2022/12/06 08:58:54;;;;;;;16.85;11.45;;;3.80;88.90;;;;;;5012534;28;20037;-57
2022/12/06 09:01:23;;;;;;;18.10;12.63;;;3.90;89.00;;;;;;5013042;28;20049;-59
2022/12/06 09:03:49;;;;;;;22.30;14.70;;;3.90;88.90;;;;;;5012310;28;20033;-61
2022/12/06 09:06:15;;;;;;;21.10;14.98;;;3.90;88.90;;;;;;5017382;28;20406;-60
2022/12/06 09:08:40;;;;;;;19.70;13.32;;;3.90;88.70;;;;;;5020198;28;20533;-59
2022/12/06 09:11:07;;;;;;;20.02;13.65;;;4.00;88.70;;;;;;5018868;28;20036;-60
2022/12/06 09:13:34;;;;;;;17.75;12.93;;;4.00;88.90;;;;;;5020059;28;20120;-61
2022/12/06 09:16:03;;;;;;;18.30;12.55;;;4.00;88.90;;;;;;5020716;28;20048;-61
2022/12/06 09:18:28;;;;;;;18.27;11.60;;;4.00;88.90;;;;;;5018856;28;20088;-59
2022/12/06 09:20:54;;;;;;;16.30;11.43;;;4.00;88.70;;;;;;5018275;28;20042;-59
2022/12/06 09:23:20;;;;;;;18.67;11.93;;;4.00;88.60;;;;;;5017920;28;20083;-60
2022/12/06 09:25:45;;;;;;;19.70;12.13;;;4.10;88.70;;;;;;5018106;28;20128;-60
2022/12/06 09:28:12;;;;;;;18.23;12.23;;;4.10;88.90;;;;;;5018085;28;20049;-61
2022/12/06 09:30:37;;;;;;;20.02;13.95;;;4.10;88.90;;;;;;5018870;28;20080;-61
2022/12/06 09:33:03;;;;;;;20.75;14.55;;;4.10;88.80;;;;;;5016751;28;20492;-61
2022/12/06 09:35:28;;;;;;;23.60;15.20;;;4.20;88.70;;;;;;5017549;28;20048;-62
2022/12/06 09:37:55;;;;;;;23.35;15.10;;;4.20;88.70;;;;;;5017604;28;20087;-61
2022/12/06 09:40:47;;;;;;;28.38;16.10;;;4.20;88.90;;;;;;5018713;28;20038;-61
2022/12/06 09:43:24;;;;;;;24.10;15.38;;;4.20;88.70;;;;;;5017001;28;20433;-59
2022/12/06 09:46:19;;;;;;;20.20;14.10;;;4.30;89.60;;;;;;5018948;28;20053;-59
2022/12/06 09:49:00;;;;;;;;;;;4.30;88.80;;;;;;5018825;28;22615;-60
2022/12/06 09:51:31;;;;;;;17.80;12.48;;;4.40;88.90;;;;;;5018742;28;19919;-60
2022/12/06 09:54:05;;;;;;;18.58;13.13;;;4.40;88.60;;;;;;5017210;28;20581;-59
2022/12/06 09:56:38;;;;;;;19.63;14.17;;;4.40;88.40;;;;;;5016286;28;20046;-60
2022/12/06 09:59:16;;;;;;;21.27;13.98;;;4.40;88.20;;;;;;5016361;28;20085;-61
2022/12/06 10:02:02;;;;;;;19.23;13.32;;;4.40;88.40;;;;;;5016553;28;20034;-61
2022/12/06 10:04:46;;;;;;;18.33;12.70;;;4.40;88.50;;;;;;5016409;28;20501;-62
2022/12/06 10:07:31;;;;;;;19.33;13.23;;;4.30;88.50;;;;;;5017215;28;20051;-61
2022/12/06 10:10:15;;;;;;;19.48;13.13;;;4.30;88.60;;;;;;5017309;28;20040;-61
2022/12/06 10:12:43;;;;;;;19.95;13.38;;;4.20;88.60;;;;;;5011822;28;20108;-61
2022/12/06 10:15:32;;;;;;;21.63;14.32;;;4.30;88.80;;;;;;5017085;28;20056;-61
2022/12/06 10:18:10;;;;;;;20.30;12.88;;;4.20;88.80;;;;;;5014433;28;20037;-61
2022/12/06 10:20:47;;;;;;;20.30;13.32;;;4.20;88.90;;;;;;5018172;28;20031;-60
2022/12/06 10:23:50;;;;;;;20.10;13.38;;;4.20;89.00;;;;;;5017422;28;20045;-61
2022/12/06 10:26:56;;;;;;;21.48;12.75;;;4.20;89.10;;;;;;5017125;28;20129;-59
2022/12/06 10:29:30;;;;;;;19.58;13.43;;;4.20;89.20;;;;;;4939792;28;20043;-59
2022/12/06 10:31:58;;;;;;;19.73;13.07;;;4.20;89.10;;;;;;5005861;28;20204;-60
2022/12/06 10:34:54;;;;;;;19.63;14.10;;;4.20;89.30;;;;;;5015734;28;20498;-60
2022/12/06 10:37:45;;;;;;;17.88;12.52;;;4.20;89.30;;;;;;5017533;28;20045;-60
2022/12/06 10:40:16;;;;;;;22.10;12.88;;;4.30;89.40;;;;;;5016730;28;20125;-61
2022/12/06 10:42:50;;;;;;;21.38;13.20;;;4.30;89.40;;;;;;5016430;28;20044;-59
2022/12/06 10:48:44;;;;;;;22.58;13.80;;;4.40;89.60;;;;;;4979906;28;20591;-59
2022/12/06 10:51:15;;;;;;;21.38;13.75;;;4.40;89.50;;;;;;5017432;28;20037;-59
2022/12/06 10:53:50;;;;;;;22.85;14.77;;;4.50;89.50;;;;;;5017099;28;20034;-59
2022/12/06 10:56:25;;;;;;;20.00;13.85;;;4.50;89.30;;;;;;5016270;28;20038;-59
2022/12/06 10:59:09;;;;;;;24.92;15.25;;;4.60;89.30;;;;;;5015627;28;20069;-60
2022/12/06 11:01:40;;;;;;;21.23;14.15;;;4.60;89.20;;;;;;5017410;28;20072;-61
2022/12/06 11:04:15;;;;;;;22.67;14.25;;;4.60;89.20;;;;;;5014272;28;20042;-61
2022/12/06 11:06:54;;;;;;;22.45;14.35;;;4.70;89.10;;;;;;5017292;28;20042;-61
2022/12/06 11:09:30;;;;;;;23.05;14.43;;;4.70;89.10;;;;;;5017489;28;20497;-60
2022/12/06 11:11:56;;;;;;;24.35;14.25;;;4.80;89.10;;;;;;5017580;28;20038;-60
2022/12/06 11:14:45;;;;;;;21.45;14.10;;;4.80;89.00;;;;;;5018332;28;20038;-60
2022/12/06 11:17:13;;;;;;;24.17;13.88;;;4.80;88.90;;;;;;5017467;28;20113;-62
2022/12/06 11:19:45;;;;;;;24.70;13.60;;;4.90;88.80;;;;;;5017356;28;20048;-59
2022/12/06 11:22:46;;;;;;;23.73;13.85;;;4.90;88.80;;;;;;5017340;28;20045;-61
2022/12/06 11:25:27;;;;;;;26.02;14.18;;;5.00;88.70;;;;;;4973726;28;20402;-59
2022/12/06 11:28:02;;;;;;;24.17;13.98;;;5.00;88.60;;;;;;5015668;28;20083;-59
2022/12/06 11:30:31;;;;;;;22.58;14.00;;;5.00;88.50;;;;;;5014807;28;20033;-59
2022/12/06 11:33:00;;;;;;;22.13;14.10;;;5.00;88.50;;;;;;5015243;28;20084;-61
2022/12/06 11:35:27;;;;;;;20.85;13.68;;;5.00;89.40;;;;;;5017031;28;20559;-60
2022/12/06 11:37:59;;;;;;;23.38;14.80;;;5.00;88.60;;;;;;5014867;28;20038;-61
2022/12/06 11:40:45;;;;;;;21.52;14.40;;;5.00;88.60;;;;;;5015291;28;20045;-59
2022/12/06 11:43:23;;;;;;;24.83;15.45;;;5.00;88.70;;;;;;5015737;28;20112;-61
2022/12/06 11:45:49;;;;;;;27.92;16.73;;;5.00;88.60;;;;;;5015565;28;20072;-61
2022/12/06 11:48:17;;;;;;;22.63;14.45;;;5.00;88.60;;;;;;4997677;28;20069;-57
2022/12/06 11:50:44;;;;;;;22.77;14.93;;;5.10;88.70;;;;;;5016680;28;20560;-60
2022/12/06 11:53:32;;;;;;;27.27;14.50;;;5.00;88.60;;;;;;5016714;28;20057;-58
2022/12/06 11:56:07;;;;;;;23.60;14.57;;;5.10;88.70;;;;;;5016770;28;20041;-62
2022/12/06 11:58:56;;;;;;;24.25;14.85;;;5.10;89.60;;;;;;5014947;28;20045;-59
2022/12/06 12:01:40;;;;;;;21.70;13.75;;;5.10;88.80;;;;;;5015535;28;20065;-59
2022/12/06 12:04:41;;;;;;;20.17;13.77;;;5.10;88.70;;;;;;5013931;28;20430;-61
2022/12/06 12:07:15;;;;;;;23.38;14.07;;;5.20;88.70;;;;;;5015361;28;20038;-61
2022/12/06 12:10:02;;;;;;;23.45;14.77;;;5.20;88.70;;;;;;5015086;28;20652;-59
2022/12/06 12:15:33;;;;;;;23.15;14.20;;;5.30;88.60;;;;;;5015194;28;20063;-60
2022/12/06 12:18:00;;;;;;;25.17;14.77;;;5.30;88.60;;;;;;5015148;28;20038;-61
2022/12/06 12:20:36;;;;;;;21.85;13.80;;;5.30;88.60;;;;;;5015185;28;20087;-61
2022/12/06 12:23:03;;;;;;;26.30;14.25;;;5.40;88.60;;;;;;5016181;28;20041;-60
2022/12/06 12:25:32;;;;;;;26.02;14.88;;;5.40;88.70;;;;;;5014764;28;20559;-60
2022/12/06 12:28:00;;;;;;;23.65;14.43;;;5.50;88.70;;;;;;5017107;28;20038;-62
2022/12/06 12:30:39;;;;;;;23.67;14.60;;;5.50;88.70;;;;;;5014373;28;20723;-59
2022/12/06 12:33:04;;;;;;;24.10;14.20;;;5.60;88.70;;;;;;5015496;28;20030;-60
2022/12/06 12:35:31;;;;;;;21.35;14.00;;;5.60;88.80;;;;;;5015015;28;20052;-60
2022/12/06 12:38:11;;;;;;;23.23;14.98;;;5.70;88.80;;;;;;5015291;28;20056;-59
2022/12/06 12:40:44;;;;;;;24.38;14.23;;;5.80;88.90;;;;;;5015394;28;20036;-59
2022/12/06 12:43:12;;;;;;;19.52;12.88;;;5.80;89.00;;;;;;5013239;28;20396;-61
2022/12/06 12:45:39;;;;;;;20.10;13.20;;;5.90;89.00;;;;;;5014506;28;20065;-59
2022/12/06 12:48:25;;;;;;;18.48;12.18;;;6.00;88.90;;;;;;5014232;28;20584;-59
2022/12/06 12:50:56;;;;;;;17.83;11.95;;;6.10;88.10;;;;;;5013569;28;20048;-61
2022/12/06 12:53:36;;;;;;;18.92;11.30;;;6.10;88.20;;;;;;5015090;28;20037;-60
2022/12/06 12:56:21;;;;;;;19.42;10.95;;;6.20;87.90;;;;;;5016082;28;20062;-62
2022/12/06 12:58:55;;;;;;;17.02;11.30;;;6.30;87.60;;;;;;5013216;28;20048;-61
2022/12/06 13:01:23;;;;;;;17.20;11.15;;;6.30;87.70;;;;;;5014585;28;20034;-62
2022/12/06 13:03:54;;;;;;;17.30;11.32;;;6.40;87.70;;;;;;5013349;28;20080;-60
2022/12/06 13:06:25;;;;;;;20.67;10.90;;;6.50;87.50;;;;;;5013540;28;20438;-59
2022/12/06 13:08:51;;;;;;;17.45;10.02;;;6.50;87.00;;;;;;5017216;28;20030;-61
2022/12/06 13:11:17;;;;;;;11.10;7.68;;;6.60;87.20;;;;;;5014988;28;20036;-60
2022/12/06 13:13:45;;;;;;;11.43;7.65;;;6.60;86.80;;;;;;5016644;28;20634;-59
2022/12/06 13:16:14;;;;;;;13.75;8.35;;;6.70;86.20;;;;;;5017095;28;20560;-61
2022/12/06 13:18:56;;;;;;;11.95;8.55;;;6.70;86.00;;;;;;5014304;28;20115;-61
2022/12/06 13:21:26;;;;;;;15.45;9.13;;;6.80;84.50;;;;;;5015614;28;20064;-61
2022/12/06 13:23:56;;;;;;;12.40;8.43;;;6.80;84.30;;;;;;5014977;28;20065;-60
2022/12/06 13:26:27;;;;;;;11.52;8.23;;;6.80;84.30;;;;;;5011990;28;20049;-59
2022/12/06 13:28:58;;;;;;;12.30;8.13;;;6.80;83.80;;;;;;5014085;28;20041;-61